Forside
METAR-TAF:

METAR-TAF

Lufthavne :

Akeno, Japan

Breddekreds: 34-32N, længdekreds: 136-41E, højde: 6 m

Aktuelle vejr

Denne rapport blev lavet for 1 time og 1 minutter siden, kl. 08:03 UTC
Vind 14 kt fra nordvest med vindstød på up til 25 kt
Temperatur 7°C
Fugtighed 42%
Tryk 1022 hPa
Sigt 10 km eller mere
Nogle få skyer i en højde af 3000 ft

METAR: RJOE 270803Z 32014G25KT 9999 FEW030 07/M05 Q1022 RMK 1CU030 A3018

Tid: 18:04 (09:04 UTC)


TAF: fraværende

Vejrobservationer og prognoser fra mere end 4000 lufthavne (METAR og TAF).

De gule og røde prikker repræsenterer de meteorologiske stationer.

Flyt musen over at se navnet på stationen.

Så klik over at se vejr observationer og prognoser.

At skifte det kort: Klik på de grønne knapper med et sort kors for at zoome ind; på den grønne knap med en bindestreg for at zoome ud; eller på de grønne pile for tilstødende kort.


METAR-TAF: